Time;durP1;ratioP1;P1;durP2;ratioP2;P2;SDS_P1;SDS_P2;PMS_P1;PMS_P2;Temp;Humidity;BMP_temperature;BMP_pressure;BME280_temperature;BME280_humidity;BME280_pressure;Samples;Min_cycle;Max_cycle;Signal;HPM_P1;HPM_P2
2023/03/02 00:01:55;;;;;;;18.60;15.60;;;;;;;;;;103151;1328;43734;-31
2023/03/02 00:04:32;;;;;;;17.30;15.40;;;;;;;;;;103096;1330;45410;-31
2023/03/02 00:07:06;;;;;;;16.40;14.60;;;;;;;;;;103069;1331;44441;-32
2023/03/02 00:09:40;;;;;;;17.40;15.00;;;;;;;;;;103075;1329;40722;-32
2023/03/02 00:12:14;;;;;;;16.60;14.80;;;;;;;;;;103072;1328;42524;-33
2023/03/02 00:14:45;;;;;;;17.30;15.30;;;;;;;;;;102856;1328;44401;-32
2023/03/02 00:17:18;;;;;;;17.40;15.50;;;;;;;;;;103055;1333;43373;-31
2023/03/02 00:19:52;;;;;;;16.70;14.90;;;;;;;;;;103011;1328;40417;-33
2023/03/02 00:22:26;;;;;;;18.60;15.60;;;;;;;;;;102955;1328;41583;-32
2023/03/02 00:24:56;;;;;;;17.60;15.50;;;;;;;;;;103226;1330;44169;-32
2023/03/02 00:27:29;;;;;;;17.40;15.50;;;;;;;;;;103118;1327;43129;-31
2023/03/02 00:30:00;;;;;;;18.40;15.40;;;;;;;;;;102446;1328;896481;-32
2023/03/02 00:32:34;;;;;;;17.30;15.40;;;;;;;;;;103195;1328;41030;-32
2023/03/02 00:35:05;;;;;;;;;;;;;;;;;;103102;1337;44152;-32
2023/03/02 00:37:38;;;;;;;17.80;15.30;;;;;;;;;;103209;1331;42540;-32
2023/03/02 00:40:11;;;;;;;18.20;15.60;;;;;;;;;;103221;1328;39350;-32
2023/03/02 00:42:42;;;;;;;17.90;15.00;;;;;;;;;;103115;1328;41187;-32
2023/03/02 00:45:13;;;;;;;17.30;15.30;;;;;;;;;;103124;1328;44487;-31
2023/03/02 00:47:47;;;;;;;16.50;14.70;;;;;;;;;;103047;1328;43172;-31
2023/03/02 00:50:20;;;;;;;16.60;14.60;;;;;;;;;;103086;1331;39748;-31
2023/03/02 00:52:52;;;;;;;16.90;14.80;;;;;;;;;;102979;1328;41627;-32
2023/03/02 00:55:23;;;;;;;17.00;14.70;;;;;;;;;;102692;1334;44417;-32
2023/03/02 00:57:55;;;;;;;17.20;15.30;;;;;;;;;;102665;1333;42872;-31
2023/03/02 01:00:27;;;;;;;17.50;14.70;;;;;;;;;;102603;1334;40817;-32
2023/03/02 01:02:58;;;;;;;17.00;15.20;;;;;;;;;;102755;1331;41806;-31
2023/03/02 01:05:28;;;;;;;17.40;15.00;;;;;;;;;;103134;1328;50776;-31
2023/03/02 01:08:00;;;;;;;17.10;15.20;;;;;;;;;;103116;1328;43136;-31
2023/03/02 01:10:32;;;;;;;16.60;14.40;;;;;;;;;;103227;1328;38447;-30
2023/03/02 01:13:05;;;;;;;16.90;14.90;;;;;;;;;;103276;1327;41415;-30
2023/03/02 01:15:38;;;;;;;16.30;14.40;;;;;;;;;;102883;1334;52668;-31
2023/03/02 01:18:16;;;;;;;16.60;14.80;;;;;;;;;;102799;1331;43145;-31
2023/03/02 01:20:49;;;;;;;16.50;14.80;;;;;;;;;;102717;1331;39561;-31
2023/03/02 01:23:24;;;;;;;17.10;15.10;;;;;;;;;;102840;1334;41731;-31
2023/03/02 01:25:57;;;;;;;16.60;14.90;;;;;;;;;;103035;1328;50964;-31
2023/03/02 01:28:26;;;;;;;;;;;;;;;;;;103015;1340;43072;-32
2023/03/02 01:31:03;;;;;;;17.10;14.90;;;;;;;;;;103247;1328;39399;-31
2023/03/02 01:33:35;;;;;;;17.60;14.40;;;;;;;;;;103280;1328;42693;-31
2023/03/02 01:36:11;;;;;;;17.20;15.00;;;;;;;;;;102762;1333;44342;-31
2023/03/02 01:38:41;;;;;;;16.40;14.60;;;;;;;;;;102783;1334;44276;-31
2023/03/02 01:41:16;;;;;;;17.20;14.40;;;;;;;;;;102815;1333;39414;-31
2023/03/02 01:43:47;;;;;;;16.80;14.50;;;;;;;;;;102809;1333;41436;-31
2023/03/02 01:46:23;;;;;;;16.30;14.20;;;;;;;;;;103262;1328;44248;-32
2023/03/02 01:49:00;;;;;;;16.50;14.50;;;;;;;;;;103336;1328;43027;-32
2023/03/02 01:51:37;;;;;;;15.70;13.80;;;;;;;;;;103308;1328;39397;-31
2023/03/02 01:54:15;;;;;;;16.40;14.40;;;;;;;;;;103301;1327;42400;-31
2023/03/02 01:56:47;;;;;;;15.60;13.50;;;;;;;;;;102768;1333;51619;-31
2023/03/02 01:59:21;;;;;;;15.30;13.10;;;;;;;;;;102801;1334;43130;-31
2023/03/02 02:01:55;;;;;;;16.00;13.70;;;;;;;;;;102835;1334;39465;-31
2023/03/02 02:04:27;;;;;;;15.90;13.60;;;;;;;;;;102785;1334;41413;-31
2023/03/02 02:07:04;;;;;;;16.00;13.50;;;;;;;;;;103317;1328;44184;-31
2023/03/02 02:09:40;;;;;;;14.90;13.20;;;;;;;;;;103321;1328;43267;-31
2023/03/02 02:12:18;;;;;;;15.20;13.50;;;;;;;;;;103262;1327;39704;-31
2023/03/02 02:14:52;;;;;;;15.60;12.90;;;;;;;;;;103196;1328;41324;-31
2023/03/02 02:17:23;;;;;;;14.70;12.80;;;;;;;;;;102839;1334;46613;-31
2023/03/02 02:20:09;;;;;;;13.80;12.30;;;;;;;;;;102820;1333;42957;-31
2023/03/02 02:22:52;;;;;;;15.40;12.80;;;;;;;;;;102833;1339;39593;-31
2023/03/02 02:25:39;;;;;;;14.70;12.90;;;;;;;;;;102892;1327;41330;-31
2023/03/02 02:28:18;;;;;;;14.80;12.40;;;;;;;;;;103202;1328;175725;-31
2023/03/02 02:30:51;;;;;;;15.50;13.20;;;;;;;;;;103303;1342;44447;-31
2023/03/02 02:33:25;;;;;;;15.00;12.60;;;;;;;;;;103317;1328;39300;-31
2023/03/02 02:36:05;;;;;;;13.70;11.90;;;;;;;;;;103080;1328;41397;-31
2023/03/02 02:38:36;;;;;;;15.20;12.30;;;;;;;;;;102820;1332;44178;-31
2023/03/02 02:41:15;;;;;;;13.50;11.70;;;;;;;;;;102814;1333;43001;-31
2023/03/02 02:43:45;;;;;;;13.60;11.80;;;;;;;;;;102811;1334;39694;-31
2023/03/02 02:46:18;;;;;;;12.90;11.50;;;;;;;;;;102986;1328;41320;-31
2023/03/02 02:48:50;;;;;;;13.60;11.50;;;;;;;;;;103279;1328;44670;-31
2023/03/02 02:51:28;;;;;;;13.70;11.50;;;;;;;;;;103289;1327;43472;-31
2023/03/02 02:54:01;;;;;;;13.60;11.60;;;;;;;;;;103285;1328;39438;-31
2023/03/02 02:56:36;;;;;;;13.70;11.60;;;;;;;;;;102983;1333;43510;-31
2023/03/02 02:59:14;;;;;;;13.30;11.40;;;;;;;;;;102820;1333;44412;-31
2023/03/02 03:01:45;;;;;;;12.90;11.00;;;;;;;;;;102810;1333;43569;-31
2023/03/02 03:04:21;;;;;;;12.70;10.90;;;;;;;;;;102815;1333;40780;-31
2023/03/02 03:06:54;;;;;;;12.90;10.90;;;;;;;;;;103047;1328;41332;-31
2023/03/02 03:09:26;;;;;;;12.40;10.70;;;;;;;;;;103278;1328;46586;-31
2023/03/02 03:12:01;;;;;;;12.80;10.20;;;;;;;;;;103260;1328;45522;-31
2023/03/02 03:14:38;;;;;;;11.90;10.30;;;;;;;;;;103314;1328;39337;-31
2023/03/02 03:17:12;;;;;;;12.50;10.30;;;;;;;;;;102959;1334;41500;-31
2023/03/02 03:19:45;;;;;;;12.30;10.50;;;;;;;;;;102820;1334;47109;-31
2023/03/02 03:22:20;;;;;;;12.30;10.10;;;;;;;;;;102815;1334;43526;-31
2023/03/02 03:24:53;;;;;;;11.90;10.00;;;;;;;;;;102826;1334;39618;-31
2023/03/02 03:27:23;;;;;;;12.10;10.10;;;;;;;;;;103030;1328;41053;-31
2023/03/02 03:29:54;;;;;;;11.90;9.80;;;;;;;;;;103280;1328;44488;-31
2023/03/02 03:32:26;;;;;;;12.30;9.90;;;;;;;;;;103271;1327;43161;-31
2023/03/02 03:34:56;;;;;;;11.60;9.70;;;;;;;;;;103326;1328;39358;-31
2023/03/02 03:37:27;;;;;;;12.00;9.70;;;;;;;;;;103025;1334;42349;-31
2023/03/02 03:40:04;;;;;;;11.30;9.50;;;;;;;;;;102798;1334;45806;-31
2023/03/02 03:42:36;;;;;;;11.60;9.80;;;;;;;;;;102808;1334;45420;-31
2023/03/02 03:45:11;;;;;;;11.60;9.40;;;;;;;;;;102779;1340;39762;-31
2023/03/02 03:47:45;;;;;;;11.90;9.50;;;;;;;;;;103056;1328;41467;-31
2023/03/02 03:50:15;;;;;;;11.20;9.20;;;;;;;;;;103278;1328;45424;-31
2023/03/02 03:52:48;;;;;;;10.80;9.20;;;;;;;;;;103262;1328;42816;-31
2023/03/02 03:55:21;;;;;;;11.90;9.60;;;;;;;;;;103300;1328;39590;-31
2023/03/02 03:57:54;;;;;;;10.70;9.00;;;;;;;;;;102965;1333;41229;-31
2023/03/02 04:00:27;;;;;;;10.90;9.20;;;;;;;;;;102581;1334;44201;-31
2023/03/02 04:02:58;;;;;;;10.30;8.70;;;;;;;;;;102790;1332;44353;-31
2023/03/02 04:05:32;;;;;;;10.50;8.40;;;;;;;;;;102176;1333;896307;-31
2023/03/02 04:08:05;;;;;;;9.90;8.70;;;;;;;;;;103024;1328;41335;-31
2023/03/02 04:10:36;;;;;;;10.90;8.60;;;;;;;;;;103318;1328;44137;-31
2023/03/02 04:13:09;;;;;;;10.50;8.50;;;;;;;;;;103307;1328;42982;-31
2023/03/02 04:15:43;;;;;;;9.90;8.00;;;;;;;;;;103299;1328;40881;-31
2023/03/02 04:18:19;;;;;;;10.40;8.30;;;;;;;;;;102917;1333;175492;-31
2023/03/02 04:20:51;;;;;;;10.50;8.40;;;;;;;;;;102768;1334;44324;-31
2023/03/02 04:23:22;;;;;;;10.30;8.10;;;;;;;;;;102782;1333;43523;-31
2023/03/02 04:25:52;;;;;;;10.40;8.20;;;;;;;;;;102813;1335;40623;-31
2023/03/02 04:28:25;;;;;;;10.70;8.30;;;;;;;;;;102891;1328;175484;-31
2023/03/02 04:30:56;;;;;;;10.20;8.10;;;;;;;;;;103314;1328;44858;-31
2023/03/02 04:33:28;;;;;;;10.40;8.20;;;;;;;;;;103306;1327;43202;-31
2023/03/02 04:35:59;;;;;;;10.20;7.80;;;;;;;;;;103306;1328;39290;-31
2023/03/02 04:38:32;;;;;;;9.90;7.80;;;;;;;;;;103057;1333;43642;-31
2023/03/02 04:41:06;;;;;;;10.20;8.10;;;;;;;;;;102811;1332;44320;-31
2023/03/02 04:43:38;;;;;;;11.40;8.10;;;;;;;;;;102797;1334;45799;-31
2023/03/02 04:46:20;;;;;;;9.60;7.80;;;;;;;;;;102806;1334;40859;-31
2023/03/02 04:48:52;;;;;;;10.60;7.80;;;;;;;;;;103022;1327;41220;-31
2023/03/02 04:51:27;;;;;;;11.10;8.20;;;;;;;;;;103336;1328;44241;-31
2023/03/02 04:54:04;;;;;;;9.80;8.00;;;;;;;;;;103304;1328;42869;-31
2023/03/02 04:56:37;;;;;;;9.60;8.00;;;;;;;;;;103309;1328;39643;-31
2023/03/02 04:59:09;;;;;;;10.50;8.50;;;;;;;;;;102928;1328;41337;-31
2023/03/02 05:01:40;;;;;;;10.40;8.40;;;;;;;;;;102818;1334;44424;-31
2023/03/02 05:04:13;;;;;;;10.60;8.30;;;;;;;;;;102804;1334;44576;-31
2023/03/02 05:06:44;;;;;;;10.50;8.70;;;;;;;;;;102842;1333;42056;-31
2023/03/02 05:09:14;;;;;;;10.80;8.30;;;;;;;;;;103043;1327;41393;-31
2023/03/02 05:11:45;;;;;;;10.30;7.90;;;;;;;;;;103173;1328;175492;-31
2023/03/02 05:14:18;;;;;;;11.40;8.20;;;;;;;;;;103272;1328;43328;-31
2023/03/02 05:16:49;;;;;;;10.40;7.90;;;;;;;;;;103291;1328;39666;-31
2023/03/02 05:19:20;;;;;;;10.10;7.80;;;;;;;;;;103014;1333;41000;-31
2023/03/02 05:21:51;;;;;;;10.10;8.00;;;;;;;;;;102772;1333;44921;-31
2023/03/02 05:24:23;;;;;;;10.60;7.90;;;;;;;;;;102827;1333;43504;-31
2023/03/02 05:26:53;;;;;;;10.20;8.20;;;;;;;;;;102737;1332;175767;-31
2023/03/02 05:29:25;;;;;;;9.90;7.70;;;;;;;;;;103005;1327;41099;-31
2023/03/02 05:31:56;;;;;;;10.90;8.20;;;;;;;;;;103274;1328;44465;-31
2023/03/02 05:34:26;;;;;;;10.50;8.40;;;;;;;;;;103310;1328;43280;-31
2023/03/02 05:36:57;;;;;;;10.20;7.90;;;;;;;;;;103303;1327;38521;-31
2023/03/02 05:39:30;;;;;;;10.20;7.80;;;;;;;;;;103085;1328;41529;-31
2023/03/02 05:42:03;;;;;;;9.90;7.90;;;;;;;;;;102795;1334;44303;-31
2023/03/02 05:44:34;;;;;;;11.20;8.60;;;;;;;;;;102792;1334;42869;-31
2023/03/02 05:47:05;;;;;;;10.60;8.10;;;;;;;;;;102831;1334;39386;-31
2023/03/02 05:49:38;;;;;;;10.40;7.90;;;;;;;;;;102916;1328;41084;-31
2023/03/02 05:52:10;;;;;;;10.70;8.90;;;;;;;;;;103307;1327;44423;-31
2023/03/02 05:54:43;;;;;;;11.70;8.50;;;;;;;;;;103269;1328;43057;-31
2023/03/02 05:57:13;;;;;;;10.40;8.40;;;;;;;;;;103339;1328;39397;-31
2023/03/02 05:59:45;;;;;;;10.30;8.70;;;;;;;;;;103104;1333;41157;-31
2023/03/02 06:02:15;;;;;;;10.60;8.70;;;;;;;;;;102812;1333;44569;-31
2023/03/02 06:04:48;;;;;;;11.30;8.60;;;;;;;;;;102818;1334;43074;-31
2023/03/02 06:07:18;;;;;;;11.10;8.70;;;;;;;;;;102797;1333;41072;-31
2023/03/02 06:09:50;;;;;;;10.30;8.70;;;;;;;;;;102894;1327;41101;-31
2023/03/02 06:12:27;;;;;;;10.80;8.90;;;;;;;;;;103265;1328;44347;-31
2023/03/02 06:14:58;;;;;;;10.90;9.10;;;;;;;;;;102937;1327;506322;-31
2023/03/02 06:17:28;;;;;;;11.90;8.70;;;;;;;;;;103279;1328;39579;-31
2023/03/02 06:20:09;;;;;;;9.80;8.60;;;;;;;;;;103019;1328;175797;-31
2023/03/02 06:22:41;;;;;;;12.40;9.20;;;;;;;;;;102775;1333;44458;-31
2023/03/02 06:25:13;;;;;;;;;;;;;;;;;;102851;1349;42847;-31
2023/03/02 06:27:43;;;;;;;11.60;9.20;;;;;;;;;;102862;1333;39586;-31
2023/03/02 06:30:17;;;;;;;10.80;9.20;;;;;;;;;;102894;1328;41289;-31
2023/03/02 06:32:48;;;;;;;11.70;9.30;;;;;;;;;;103282;1328;46051;-31
2023/03/02 06:35:22;;;;;;;11.50;9.00;;;;;;;;;;103302;1327;44386;-31
2023/03/02 06:37:53;;;;;;;10.30;8.80;;;;;;;;;;103318;1327;39865;-31
2023/03/02 06:40:23;;;;;;;11.30;9.20;;;;;;;;;;103167;1328;41365;-31
2023/03/02 06:43:00;;;;;;;11.50;9.20;;;;;;;;;;102814;1334;45680;-31
2023/03/02 06:45:33;;;;;;;10.90;8.90;;;;;;;;;;102860;1333;44456;-31
2023/03/02 06:48:06;;;;;;;12.10;9.30;;;;;;;;;;102789;1333;41015;-31
2023/03/02 06:50:37;;;;;;;11.20;9.20;;;;;;;;;;102939;1328;41550;-31
2023/03/02 06:53:10;;;;;;;10.50;8.90;;;;;;;;;;103210;1328;175738;-31
2023/03/02 06:55:41;;;;;;;11.60;9.30;;;;;;;;;;103279;1328;42780;-31
2023/03/02 06:58:12;;;;;;;10.70;8.80;;;;;;;;;;103245;1328;41913;-31
2023/03/02 07:00:42;;;;;;;11.60;9.70;;;;;;;;;;103138;1327;41109;-31
2023/03/02 07:03:16;;;;;;;13.00;9.80;;;;;;;;;;102759;1333;44371;-31
2023/03/02 07:05:47;;;;;;;11.10;8.90;;;;;;;;;;102787;1332;45333;-31
2023/03/02 07:08:17;;;;;;;11.90;9.50;;;;;;;;;;102847;1334;39474;-31
2023/03/02 07:10:48;;;;;;;11.40;9.20;;;;;;;;;;102862;1328;42342;-31
2023/03/02 07:13:20;;;;;;;10.70;9.20;;;;;;;;;;103278;1328;44647;-31
2023/03/02 07:15:56;;;;;;;12.40;9.70;;;;;;;;;;103277;1328;44228;-31
2023/03/02 07:18:27;;;;;;;12.50;9.50;;;;;;;;;;103308;1328;39419;-31
2023/03/02 07:20:57;;;;;;;12.30;9.80;;;;;;;;;;103161;1328;42628;-31
2023/03/02 07:23:32;;;;;;;13.60;9.90;;;;;;;;;;102833;1333;45724;-32
2023/03/02 07:26:07;;;;;;;12.90;10.50;;;;;;;;;;102793;1333;45644;-31
2023/03/02 07:28:40;;;;;;;11.80;9.70;;;;;;;;;;102824;1335;39785;-31
2023/03/02 07:31:12;;;;;;;12.30;10.30;;;;;;;;;;102873;1328;41427;-31
2023/03/02 07:33:42;;;;;;;12.50;10.00;;;;;;;;;;103306;1327;45390;-31
2023/03/02 07:36:15;;;;;;;12.90;10.40;;;;;;;;;;103316;1328;43169;-31
2023/03/02 07:38:48;;;;;;;13.60;9.90;;;;;;;;;;103281;1328;40721;-31
2023/03/02 07:41:19;;;;;;;11.60;9.80;;;;;;;;;;103161;1328;41163;-31
2023/03/02 07:43:51;;;;;;;12.70;10.40;;;;;;;;;;102714;1334;176222;-31
2023/03/02 07:46:24;;;;;;;12.40;10.30;;;;;;;;;;102795;1335;44302;-31
2023/03/02 07:48:54;;;;;;;12.20;10.40;;;;;;;;;;102802;1333;39486;-31
2023/03/02 07:51:25;;;;;;;14.60;11.70;;;;;;;;;;102717;1328;194781;-31
2023/03/02 07:53:56;;;;;;;14.80;12.80;;;;;;;;;;103287;1328;44662;-31
2023/03/02 07:56:26;;;;;;;15.00;12.40;;;;;;;;;;103302;1328;42894;-32
2023/03/02 07:58:56;;;;;;;14.60;12.70;;;;;;;;;;103305;1328;39677;-31
2023/03/02 08:01:29;;;;;;;16.50;14.40;;;;;;;;;;103196;1328;41460;-32
2023/03/02 08:04:01;;;;;;;18.10;16.10;;;;;;;;;;102527;1334;52084;-32
2023/03/02 08:06:32;;;;;;;20.20;18.00;;;;;;;;;;102610;1336;43026;-32
2023/03/02 08:09:04;;;;;;;20.00;17.40;;;;;;;;;;102593;1334;39358;-31
2023/03/02 08:11:37;;;;;;;19.40;17.40;;;;;;;;;;102691;1337;41425;-31
2023/03/02 08:14:06;;;;;;;18.10;16.10;;;;;;;;;;103012;1328;175678;-31
2023/03/02 08:16:36;;;;;;;19.10;15.80;;;;;;;;;;103094;1330;44945;-31
2023/03/02 08:19:09;;;;;;;18.00;15.70;;;;;;;;;;103133;1327;39759;-31
2023/03/02 08:21:41;;;;;;;17.10;15.20;;;;;;;;;;103163;1328;42366;-31
2023/03/02 08:24:13;;;;;;;;;;;;;;;;;;102736;1338;44258;-31
2023/03/02 08:26:46;;;;;;;17.60;15.70;;;;;;;;;;102617;1337;42458;-31
2023/03/02 08:29:19;;;;;;;17.90;14.70;;;;;;;;;;102905;1336;39830;-32
2023/03/02 08:31:49;;;;;;;18.30;15.40;;;;;;;;;;102712;1330;42776;-31
2023/03/02 08:34:20;;;;;;;16.50;14.50;;;;;;;;;;103105;1328;44612;-31
2023/03/02 08:36:54;;;;;;;18.20;15.00;;;;;;;;;;103263;1328;43670;-31
2023/03/02 08:39:29;;;;;;;16.80;14.80;;;;;;;;;;103061;1331;39809;-31
2023/03/02 08:42:02;;;;;;;16.60;14.90;;;;;;;;;;102936;1327;41007;-30
2023/03/02 08:44:33;;;;;;;16.90;15.10;;;;;;;;;;102865;1331;175672;-30
2023/03/02 08:47:10;;;;;;;17.70;14.80;;;;;;;;;;102832;1331;43176;-30
2023/03/02 08:49:46;;;;;;;15.80;14.10;;;;;;;;;;102842;1337;175711;-31
2023/03/02 08:52:18;;;;;;;17.30;15.00;;;;;;;;;;102923;1331;41695;-32
2023/03/02 08:54:48;;;;;;;16.90;14.70;;;;;;;;;;103235;1328;44601;-32
2023/03/02 08:57:19;;;;;;;17.50;14.20;;;;;;;;;;103253;1331;42978;-32
2023/03/02 08:59:51;;;;;;;;;;;;;;;;;;103282;1328;42057;-32
2023/03/02 09:02:25;;;;;;;16.70;14.00;;;;;;;;;;103119;1330;41531;-32
2023/03/02 09:04:55;;;;;;;16.10;14.30;;;;;;;;;;103220;1327;44463;-32
2023/03/02 09:07:29;;;;;;;17.00;13.70;;;;;;;;;;103133;1328;42890;-30
2023/03/02 09:10:02;;;;;;;16.00;13.60;;;;;;;;;;103148;1328;40930;-30
2023/03/02 09:12:34;;;;;;;16.60;13.80;;;;;;;;;;103195;1328;41776;-30
2023/03/02 09:15:07;;;;;;;15.80;13.70;;;;;;;;;;102703;1336;44194;-30
2023/03/02 09:17:38;;;;;;;14.50;13.00;;;;;;;;;;102889;1335;42795;-31
2023/03/02 09:20:12;;;;;;;14.90;12.90;;;;;;;;;;102600;1334;40097;-31
2023/03/02 09:22:47;;;;;;;15.30;12.80;;;;;;;;;;102581;1334;41710;-32
2023/03/02 09:25:19;;;;;;;15.00;13.10;;;;;;;;;;102775;1328;44514;-31
2023/03/02 09:27:49;;;;;;;15.80;13.10;;;;;;;;;;102995;1336;43041;-31
2023/03/02 09:30:22;;;;;;;13.90;12.30;;;;;;;;;;103084;1328;39558;-31
2023/03/02 09:32:54;;;;;;;14.40;12.40;;;;;;;;;;102697;1331;41356;-32
2023/03/02 09:35:27;;;;;;;14.90;12.40;;;;;;;;;;103163;1327;44550;-32
2023/03/02 09:37:57;;;;;;;15.10;12.40;;;;;;;;;;103183;1327;44144;-31
2023/03/02 09:40:32;;;;;;;14.00;12.40;;;;;;;;;;103312;1328;39323;-31
2023/03/02 09:43:24;;;;;;;13.40;11.70;;;;;;;;;;103277;1328;42341;-31
2023/03/02 09:46:05;;;;;;;13.70;11.90;;;;;;;;;;103222;1331;44387;-31
2023/03/02 09:48:48;;;;;;;13.20;11.70;;;;;;;;;;103290;1327;43617;-31
2023/03/02 09:51:39;;;;;;;13.90;11.80;;;;;;;;;;103306;1328;39725;-31
2023/03/02 09:54:15;;;;;;;14.10;12.00;;;;;;;;;;103137;1333;41097;-31
2023/03/02 09:56:53;;;;;;;13.20;11.30;;;;;;;;;;102843;1331;44180;-31
2023/03/02 09:59:28;;;;;;;12.80;11.50;;;;;;;;;;102864;1331;44256;-31
2023/03/02 10:02:20;;;;;;;12.90;10.90;;;;;;;;;;102723;1333;40091;-31
2023/03/02 10:04:53;;;;;;;13.00;10.60;;;;;;;;;;102913;1327;43432;-31
2023/03/02 10:07:29;;;;;;;12.00;10.60;;;;;;;;;;103270;1327;44395;-31
2023/03/02 10:10:07;;;;;;;11.60;10.20;;;;;;;;;;103077;1330;42994;-31
2023/03/02 10:12:59;;;;;;;12.50;9.90;;;;;;;;;;102943;1331;39928;-32
2023/03/02 10:15:37;;;;;;;12.60;10.70;;;;;;;;;;102899;1331;41370;-31
2023/03/02 10:18:20;;;;;;;11.70;10.00;;;;;;;;;;102863;1331;47018;-31
2023/03/02 10:20:55;;;;;;;11.70;10.00;;;;;;;;;;102800;1334;42995;-31
2023/03/02 10:23:39;;;;;;;11.80;9.70;;;;;;;;;;102604;1333;39317;-31
2023/03/02 10:26:31;;;;;;;11.00;9.40;;;;;;;;;;103010;1328;41307;-31
2023/03/02 10:29:30;;;;;;;11.40;9.60;;;;;;;;;;103058;1331;45622;-31
2023/03/02 10:32:12;;;;;;;11.60;9.50;;;;;;;;;;103234;1328;44391;-31
2023/03/02 10:34:45;;;;;;;11.00;9.50;;;;;;;;;;102921;1334;40774;-31
2023/03/02 10:37:20;;;;;;;11.50;9.40;;;;;;;;;;102809;1333;42444;-31
2023/03/02 10:39:53;;;;;;;11.20;8.90;;;;;;;;;;103064;1331;44304;-32
2023/03/02 10:42:30;;;;;;;10.80;8.90;;;;;;;;;;103185;1327;44121;-31
2023/03/02 10:45:25;;;;;;;10.10;8.60;;;;;;;;;;103022;1327;39406;-31
2023/03/02 10:48:03;;;;;;;11.10;8.70;;;;;;;;;;102587;1336;43522;-31
2023/03/02 10:50:33;;;;;;;10.40;8.60;;;;;;;;;;102759;1334;44609;-31
2023/03/02 10:53:07;;;;;;;10.10;8.40;;;;;;;;;;102647;1334;44143;-31
2023/03/02 10:55:49;;;;;;;10.30;8.70;;;;;;;;;;102838;1330;41154;-31
2023/03/02 10:58:35;;;;;;;9.80;8.40;;;;;;;;;;102931;1327;41314;-31
2023/03/02 11:01:17;;;;;;;9.80;8.50;;;;;;;;;;103084;1328;44476;-32
2023/03/02 11:04:00;;;;;;;10.20;8.50;;;;;;;;;;103255;1327;45191;-32
2023/03/02 11:06:32;;;;;;;10.30;8.40;;;;;;;;;;102874;1334;39611;-31
2023/03/02 11:09:06;;;;;;;9.40;8.00;;;;;;;;;;102595;1334;41342;-31
2023/03/02 11:11:53;;;;;;;9.70;7.90;;;;;;;;;;102592;1336;44205;-31
2023/03/02 11:14:26;;;;;;;9.00;7.50;;;;;;;;;;102608;1335;43125;-31
2023/03/02 11:16:59;;;;;;;9.80;8.20;;;;;;;;;;102847;1331;39625;-32
2023/03/02 11:19:39;;;;;;;10.10;8.00;;;;;;;;;;102712;1334;41348;-32
2023/03/02 11:22:25;;;;;;;9.00;7.60;;;;;;;;;;102916;1334;44334;-31
2023/03/02 11:24:59;;;;;;;9.00;7.70;;;;;;;;;;102805;1334;42808;-31
2023/03/02 11:27:33;;;;;;;9.30;7.60;;;;;;;;;;102744;1334;39319;-31
2023/03/02 11:30:13;;;;;;;9.20;7.60;;;;;;;;;;102810;1334;41550;-31
2023/03/02 11:32:52;;;;;;;8.60;7.40;;;;;;;;;;102839;1333;44170;-31
2023/03/02 11:35:36;;;;;;;;;;;;;;;;;;102718;1334;175655;-31
2023/03/02 11:38:19;;;;;;;8.90;7.10;;;;;;;;;;103414;1330;39711;-32
2023/03/02 11:40:55;;;;;;;9.10;7.20;;;;;;;;;;103112;1331;41053;-31
2023/03/02 11:43:26;;;;;;;8.30;7.00;;;;;;;;;;103084;1330;44581;-31
2023/03/02 11:46:02;;;;;;;9.00;7.20;;;;;;;;;;103094;1329;42786;-31
2023/03/02 11:48:43;;;;;;;8.40;6.90;;;;;;;;;;102768;1336;39573;-31
2023/03/02 11:51:19;;;;;;;8.70;6.80;;;;;;;;;;102639;1334;40953;-31
2023/03/02 11:54:01;;;;;;;8.50;6.80;;;;;;;;;;102677;1337;44393;-31
2023/03/02 11:56:33;;;;;;;;;;;;;;;;;;102645;1336;44912;-31
2023/03/02 11:59:12;;;;;;;8.00;6.20;;;;;;;;;;102776;1329;39458;-31
2023/03/02 12:01:47;;;;;;;9.30;6.60;;;;;;;;;;103059;1328;41104;-31
2023/03/02 12:04:31;;;;;;;8.30;6.60;;;;;;;;;;103199;1328;45241;-31
2023/03/02 12:07:16;;;;;;;8.40;6.30;;;;;;;;;;103266;1328;42984;-31
2023/03/02 12:09:57;;;;;;;7.80;6.50;;;;;;;;;;103090;1328;39593;-31
2023/03/02 12:12:43;;;;;;;8.20;6.50;;;;;;;;;;103303;1327;41015;-32
2023/03/02 12:15:38;;;;;;;8.50;6.50;;;;;;;;;;103249;1328;44224;-31
2023/03/02 12:18:55;;;;;;;7.30;6.10;;;;;;;;;;103298;1328;45258;-31
2023/03/02 12:21:25;;;;;;;7.20;6.10;;;;;;;;;;102971;1330;39629;-31
2023/03/02 12:24:03;;;;;;;7.50;5.90;;;;;;;;;;103164;1328;41204;-31
2023/03/02 12:26:37;;;;;;;8.60;6.00;;;;;;;;;;103338;1328;44631;-31
2023/03/02 12:29:24;;;;;;;7.50;6.10;;;;;;;;;;102846;1331;45123;-31
2023/03/02 12:31:57;;;;;;;8.00;6.10;;;;;;;;;;102695;1331;39624;-31
2023/03/02 12:34:35;;;;;;;8.20;5.90;;;;;;;;;;102394;1335;40968;-31
2023/03/02 12:37:15;;;;;;;7.60;5.70;;;;;;;;;;102559;1336;44410;-31
2023/03/02 12:40:18;;;;;;;7.40;5.80;;;;;;;;;;102952;1328;42907;-31
2023/03/02 12:43:22;;;;;;;7.40;5.60;;;;;;;;;;103152;1327;40787;-31
2023/03/02 12:46:27;;;;;;;10.20;5.80;;;;;;;;;;103063;1328;41247;-31
2023/03/02 12:49:10;;;;;;;9.00;5.80;;;;;;;;;;102929;1329;45635;-31
2023/03/02 12:51:56;;;;;;;7.10;5.40;;;;;;;;;;102625;1334;43229;-31
2023/03/02 12:54:30;;;;;;;7.00;5.60;;;;;;;;;;102744;1333;39953;-32
2023/03/02 12:57:17;;;;;;;7.30;5.60;;;;;;;;;;102728;1333;41225;-32
2023/03/02 12:59:55;;;;;;;7.70;5.80;;;;;;;;;;103047;1327;44257;-31
2023/03/02 13:02:30;;;;;;;7.10;5.50;;;;;;;;;;102951;1331;44322;-31
2023/03/02 13:05:05;;;;;;;6.80;5.40;;;;;;;;;;103097;1327;39403;-31
2023/03/02 13:07:42;;;;;;;7.10;5.50;;;;;;;;;;103257;1327;43161;-32
2023/03/02 13:10:25;;;;;;;6.90;5.30;;;;;;;;;;102952;1334;45680;-31
2023/03/02 13:12:55;;;;;;;8.00;5.70;;;;;;;;;;102656;1335;42829;-31
2023/03/02 13:15:27;;;;;;;7.10;5.50;;;;;;;;;;102625;1334;39534;-32
2023/03/02 13:18:00;;;;;;;6.90;5.00;;;;;;;;;;102722;1333;41226;-32
2023/03/02 13:20:31;;;;;;;7.40;5.30;;;;;;;;;;102882;1327;44264;-32
2023/03/02 13:23:05;;;;;;;6.60;5.20;;;;;;;;;;103251;1328;43188;-32
2023/03/02 13:25:38;;;;;;;7.30;5.30;;;;;;;;;;103189;1331;39406;-32
2023/03/02 13:28:27;;;;;;;6.70;5.40;;;;;;;;;;103188;1328;41371;-32
2023/03/02 13:31:01;;;;;;;7.20;5.30;;;;;;;;;;102823;1333;44581;-31
2023/03/02 13:33:33;;;;;;;7.20;5.40;;;;;;;;;;102692;1333;44229;-31
2023/03/02 13:36:08;;;;;;;6.90;5.20;;;;;;;;;;102767;1332;39535;-31
2023/03/02 13:38:39;;;;;;;6.90;5.40;;;;;;;;;;102633;1334;41657;-31
2023/03/02 13:41:09;;;;;;;6.80;5.00;;;;;;;;;;102974;1328;45508;-31
2023/03/02 13:43:43;;;;;;;6.60;4.90;;;;;;;;;;103275;1327;43416;-30
2023/03/02 13:46:32;;;;;;;6.70;5.00;;;;;;;;;;103269;1328;40707;-31
2023/03/02 13:49:07;;;;;;;7.30;5.10;;;;;;;;;;103246;1331;41343;-30
2023/03/02 13:51:43;;;;;;;6.90;5.10;;;;;;;;;;102764;1333;44294;-30
2023/03/02 13:54:24;;;;;;;6.90;5.10;;;;;;;;;;102826;1333;42825;-29
2023/03/02 13:56:57;;;;;;;9.10;7.20;;;;;;;;;;102796;1333;39558;-30
2023/03/02 13:59:28;;;;;;;9.90;7.40;;;;;;;;;;102664;1334;41082;-29
2023/03/02 14:02:02;;;;;;;10.60;7.60;;;;;;;;;;103220;1327;45229;-29
2023/03/02 14:04:35;;;;;;;11.30;7.90;;;;;;;;;;103266;1327;43130;-32
2023/03/02 14:07:05;;;;;;;11.10;8.30;;;;;;;;;;103245;1328;39379;-30
2023/03/02 14:09:36;;;;;;;8.30;6.00;;;;;;;;;;103297;1327;41418;-30
2023/03/02 14:12:08;;;;;;;8.30;5.40;;;;;;;;;;103265;1327;44459;-29
2023/03/02 14:14:40;;;;;;;9.60;6.30;;;;;;;;;;103063;1328;309309;-31
2023/03/02 14:17:22;;;;;;;8.90;5.20;;;;;;;;;;103279;1327;39497;-31
2023/03/02 14:19:55;;;;;;;8.30;5.50;;;;;;;;;;103261;1327;41198;-31
2023/03/02 14:22:29;;;;;;;8.70;5.50;;;;;;;;;;102763;1334;46673;-31
2023/03/02 14:24:59;;;;;;;7.90;5.30;;;;;;;;;;102792;1334;42949;-31
2023/03/02 14:27:35;;;;;;;8.50;5.90;;;;;;;;;;102741;1333;41021;-31
2023/03/02 14:30:16;;;;;;;7.00;5.10;;;;;;;;;;102754;1333;42575;-31
2023/03/02 14:32:49;;;;;;;8.40;5.50;;;;;;;;;;102914;1333;49882;-31
2023/03/02 14:35:25;;;;;;;7.70;5.20;;;;;;;;;;102807;1334;43090;-31
2023/03/02 14:37:55;;;;;;;6.80;5.30;;;;;;;;;;102802;1334;39557;-31
2023/03/02 14:40:28;;;;;;;7.50;5.30;;;;;;;;;;102921;1331;42501;-31
2023/03/02 14:43:01;;;;;;;7.50;5.40;;;;;;;;;;103085;1331;51964;-31
2023/03/02 14:45:31;;;;;;;7.80;5.10;;;;;;;;;;103103;1331;43441;-31
2023/03/02 14:48:01;;;;;;;6.70;5.00;;;;;;;;;;102913;1331;39728;-31
2023/03/02 14:50:41;;;;;;;7.10;5.30;;;;;;;;;;103083;1330;41705;-31
2023/03/02 14:53:16;;;;;;;7.00;5.20;;;;;;;;;;102942;1329;47747;-31
2023/03/02 14:55:48;;;;;;;7.00;5.20;;;;;;;;;;103076;1337;43763;-31
2023/03/02 14:58:29;;;;;;;7.80;5.40;;;;;;;;;;103069;1329;40807;-30
2023/03/02 15:00:59;;;;;;;7.60;5.20;;;;;;;;;;103052;1331;42532;-31